Time;durP1;ratioP1;P1;durP2;ratioP2;P2;SDS_P1;SDS_P2;PMS_P1;PMS_P2;Temp;Humidity;BMP_temperature;BMP_pressure;BME280_temperature;BME280_humidity;BME280_pressure;Samples;Min_cycle;Max_cycle;Signal;HPM_P1;HPM_P2
2021/04/23 00:01:03;;;;;;;9.07;4.33;;;7.60;1.00;;;;;;5071869;28;20278;-76
2021/04/23 00:03:40;;;;;;;10.73;4.60;;;7.60;1.00;;;;;;5072080;28;20165;-79
2021/04/23 00:06:22;;;;;;;10.67;4.10;;;7.60;1.00;;;;;;5072433;28;20168;-77
2021/04/23 00:08:52;;;;;;;11.63;4.33;;;7.60;1.00;;;;;;5072360;28;20248;-77
2021/04/23 00:11:22;;;;;;;13.73;4.70;;;7.50;1.00;;;;;;5071889;28;20734;-77
2021/04/23 00:13:49;;;;;;;13.23;3.93;;;7.50;1.00;;;;;;5072396;28;20531;-79
2021/04/23 00:16:15;;;;;;;8.03;4.53;;;7.50;1.00;;;;;;5072316;28;20188;-80
2021/04/23 00:18:41;;;;;;;8.73;3.40;;;7.50;1.00;;;;;;5072094;28;20169;-76
2021/04/23 00:21:11;;;;;;;9.37;3.80;;;7.50;1.00;;;;;;5072192;28;20267;-76
2021/04/23 00:23:37;;;;;;;8.20;3.63;;;7.40;1.00;;;;;;5071974;28;20628;-76
2021/04/23 00:26:04;;;;;;;8.67;4.00;;;7.40;1.00;;;;;;5071942;28;20172;-75
2021/04/23 00:28:34;;;;;;;8.90;3.70;;;7.40;1.00;;;;;;5071932;28;20636;-75
2021/04/23 00:31:02;;;;;;;7.27;3.80;;;7.40;1.00;;;;;;5072094;28;20721;-77
2021/04/23 00:33:28;;;;;;;11.07;4.10;;;7.40;1.00;;;;;;5072031;28;20500;-78
2021/04/23 00:35:54;;;;;;;8.80;3.93;;;7.40;1.00;;;;;;5070384;28;20184;-75
2021/04/23 00:38:25;;;;;;;14.80;4.60;;;7.40;1.00;;;;;;5071672;28;20173;-79
2021/04/23 00:41:13;;;;;;;13.10;4.23;;;7.30;1.00;;;;;;5072162;28;20195;-77
2021/04/23 00:43:42;;;;;;;12.20;4.10;;;7.30;1.00;;;;;;5075356;28;20184;-76
2021/04/23 00:46:08;;;;;;;10.97;4.70;;;7.30;1.00;;;;;;5075749;28;20308;-75
2021/04/23 00:48:36;;;;;;;13.33;4.60;;;7.30;1.00;;;;;;5075427;28;20599;-80
2021/04/23 00:51:08;;;;;;;10.90;4.70;;;7.30;1.00;;;;;;5075881;28;20349;-78
2021/04/23 00:53:37;;;;;;;12.47;4.63;;;7.30;1.00;;;;;;5075022;28;20171;-79
2021/04/23 00:56:06;;;;;;;7.50;4.17;;;7.30;1.00;;;;;;5075175;28;20164;-78
2021/04/23 00:58:33;;;;;;;11.03;4.40;;;7.30;1.00;;;;;;5075320;28;20176;-77
2021/04/23 01:01:05;;;;;;;9.67;4.30;;;7.30;1.00;;;;;;5075373;28;20302;-75
2021/04/23 01:03:32;;;;;;;10.10;3.90;;;7.30;1.00;;;;;;5074989;28;20169;-75
2021/04/23 01:05:59;;;;;;;9.23;4.03;;;7.30;1.00;;;;;;5075170;28;20156;-76
2021/04/23 01:08:26;;;;;;;8.10;4.53;;;7.20;1.00;;;;;;5074941;28;20172;-76
2021/04/23 01:10:58;;;;;;;10.90;4.20;;;7.10;1.00;;;;;;5075129;28;20555;-76
2021/04/23 01:13:31;;;;;;;8.53;3.93;;;7.00;1.00;;;;;;5075044;28;20161;-78
2021/04/23 01:16:02;;;;;;;8.50;4.00;;;7.10;1.00;;;;;;5075119;28;20168;-76
2021/04/23 01:18:28;;;;;;;9.63;4.23;;;7.00;1.00;;;;;;5075181;28;20187;-75
2021/04/23 01:21:05;;;;;;;10.43;4.30;;;7.00;1.00;;;;;;5075043;28;20188;-81
2021/04/23 01:23:31;;;;;;;11.37;4.57;;;7.00;1.00;;;;;;5074587;28;20179;-77
2021/04/23 01:25:57;;;;;;;9.80;5.53;;;6.90;1.00;;;;;;5074835;28;20685;-79
2021/04/23 01:28:23;;;;;;;9.20;4.10;;;6.90;1.00;;;;;;5074896;28;20200;-78
2021/04/23 01:30:49;;;;;;;9.10;3.73;;;6.90;1.00;;;;;;5074698;28;20214;-77
2021/04/23 01:33:15;;;;;;;10.50;5.10;;;6.90;1.00;;;;;;5074991;28;20172;-78
2021/04/23 01:35:40;;;;;;;10.13;5.00;;;6.90;1.00;;;;;;5074578;28;20179;-78
2021/04/23 01:38:06;;;;;;;8.97;4.27;;;6.80;1.00;;;;;;5074424;28;20189;-75
2021/04/23 01:40:32;;;;;;;10.70;4.90;;;6.80;1.00;;;;;;5074569;28;20164;-77
2021/04/23 01:42:58;;;;;;;10.47;4.47;;;6.80;1.00;;;;;;5074730;28;20180;-77
2021/04/23 01:45:23;;;;;;;11.30;5.07;;;6.90;1.00;;;;;;5074407;28;20276;-76
2021/04/23 01:47:49;;;;;;;11.00;4.40;;;6.70;1.00;;;;;;5074576;28;20172;-82
2021/04/23 01:50:20;;;;;;;10.03;4.30;;;6.70;1.00;;;;;;5074334;28;20538;-76
2021/04/23 01:52:48;;;;;;;12.80;4.67;;;6.60;1.00;;;;;;5074210;28;20313;-80
2021/04/23 01:55:18;;;;;;;9.83;4.67;;;6.60;1.00;;;;;;5074470;28;20187;-76
2021/04/23 01:57:44;;;;;;;11.33;4.77;;;6.60;1.00;;;;;;5074463;28;20164;-75
2021/04/23 02:00:20;;;;;;;12.73;4.73;;;6.60;1.00;;;;;;5074455;28;20176;-79
2021/04/23 02:02:46;;;;;;;10.23;4.93;;;6.60;1.00;;;;;;5074561;28;20164;-77
2021/04/23 02:05:13;;;;;;;9.20;4.90;;;6.60;1.00;;;;;;5074375;28;20183;-79
2021/04/23 02:07:39;;;;;;;8.13;4.63;;;6.60;1.00;;;;;;5074102;28;20184;-75
2021/04/23 02:10:11;;;;;;;10.83;5.10;;;6.50;1.00;;;;;;5074165;28;20226;-79
2021/04/23 02:12:37;;;;;;;10.40;4.90;;;6.50;1.00;;;;;;5074564;28;20275;-79
2021/04/23 02:15:05;;;;;;;9.37;4.83;;;6.50;1.00;;;;;;5074161;28;20204;-80
2021/04/23 02:17:30;;;;;;;13.27;4.80;;;6.50;1.00;;;;;;5074089;28;20176;-77
2021/04/23 02:19:56;;;;;;;14.60;4.53;;;6.50;1.00;;;;;;5072794;28;20200;-78
2021/04/23 02:22:22;;;;;;;12.17;5.00;;;6.40;1.00;;;;;;5074039;28;20187;-76
2021/04/23 02:24:47;;;;;;;10.10;4.77;;;6.40;1.00;;;;;;5073763;28;20175;-76
2021/04/23 02:27:13;;;;;;;11.43;4.50;;;6.40;1.00;;;;;;5073852;28;20689;-79
2021/04/23 02:29:39;;;;;;;9.60;4.60;;;6.30;1.00;;;;;;5073864;28;20175;-77
2021/04/23 02:32:05;;;;;;;9.53;4.60;;;6.30;1.00;;;;;;5073887;28;20268;-75
2021/04/23 02:34:30;;;;;;;11.00;4.63;;;6.30;1.00;;;;;;5073862;28;20815;-80
2021/04/23 02:36:56;;;;;;;8.53;4.37;;;6.30;1.00;;;;;;5073317;28;20183;-78
2021/04/23 02:39:22;;;;;;;10.93;4.73;;;6.30;1.00;;;;;;5073740;28;20199;-76
2021/04/23 02:41:53;;;;;;;9.27;4.30;;;6.30;1.00;;;;;;5073034;28;20180;-79
2021/04/23 02:44:19;;;;;;;10.43;4.93;;;6.30;1.00;;;;;;5073740;28;20191;-75
2021/04/23 02:46:45;;;;;;;9.40;4.73;;;6.30;1.00;;;;;;5073573;28;20177;-77
2021/04/23 02:49:11;;;;;;;9.27;4.93;;;6.30;1.00;;;;;;5073441;28;20175;-78
2021/04/23 02:51:42;;;;;;;10.53;4.93;;;6.30;1.00;;;;;;5072925;28;20282;-76
2021/04/23 02:54:08;;;;;;;12.13;5.60;;;6.20;4.60;;;;;;5073572;28;20214;-79
2021/04/23 02:56:34;;;;;;;11.87;4.70;;;6.30;5.00;;;;;;5073416;28;20716;-76
2021/04/23 02:59:01;;;;;;;13.33;5.77;;;6.30;1.00;;;;;;5073361;28;20188;-76
2021/04/23 03:01:33;;;;;;;8.67;4.70;;;6.30;2.10;;;;;;5073005;28;20203;-75
2021/04/23 03:03:59;;;;;;;13.47;5.13;;;6.20;6.10;;;;;;5072884;28;20198;-79
2021/04/23 03:06:24;;;;;;;12.90;5.20;;;6.20;4.30;;;;;;5072925;28;20172;-75
2021/04/23 03:08:50;;;;;;;9.40;4.57;;;6.10;8.50;;;;;;5073522;28;20302;-79
2021/04/23 03:11:19;;;;;;;13.13;4.90;;;6.10;8.30;;;;;;5073139;28;20616;-79
2021/04/23 03:13:53;;;;;;;12.93;4.90;;;6.10;11.30;;;;;;5073066;28;20214;-79
2021/04/23 03:16:19;;;;;;;13.17;5.80;;;6.10;10.80;;;;;;5073138;28;20172;-77
2021/04/23 03:18:46;;;;;;;9.43;4.90;;;6.10;13.10;;;;;;5073053;28;20190;-81
2021/04/23 03:21:13;;;;;;;12.13;5.90;;;6.10;14.20;;;;;;5073255;28;20195;-77
2021/04/23 03:23:40;;;;;;;10.03;4.73;;;6.10;14.20;;;;;;5072905;28;20225;-78
2021/04/23 03:26:08;;;;;;;9.97;5.33;;;6.20;9.90;;;;;;5073064;28;20164;-79
2021/04/23 03:28:36;;;;;;;11.87;5.50;;;6.30;6.40;;;;;;5073336;28;20171;-76
2021/04/23 03:31:03;;;;;;;14.30;5.90;;;6.40;1.60;;;;;;5073106;28;20212;-76
2021/04/23 03:33:29;;;;;;;13.70;5.30;;;6.40;1.00;;;;;;5072823;28;20624;-76
2021/04/23 03:35:58;;;;;;;12.70;5.27;;;6.30;3.60;;;;;;5073088;28;20190;-76
2021/04/23 03:38:29;;;;;;;11.87;5.83;;;6.10;8.40;;;;;;5072571;28;20161;-78
2021/04/23 03:40:56;;;;;;;14.10;5.47;;;6.20;10.10;;;;;;5072788;28;20177;-76
2021/04/23 03:43:21;;;;;;;9.73;5.30;;;6.20;7.40;;;;;;5073058;28;20214;-77
2021/04/23 03:45:48;;;;;;;10.13;5.80;;;6.10;9.00;;;;;;5073250;28;20543;-77
2021/04/23 03:48:15;;;;;;;9.57;5.40;;;6.10;10.10;;;;;;5072867;28;20164;-75
2021/04/23 03:50:42;;;;;;;16.30;6.30;;;6.30;9.80;;;;;;5072918;28;20192;-78
2021/04/23 03:53:11;;;;;;;16.90;6.30;;;6.20;5.00;;;;;;5071831;28;20706;-76
2021/04/23 03:55:40;;;;;;;10.47;6.10;;;6.20;8.90;;;;;;5072794;28;20199;-78
2021/04/23 03:58:07;;;;;;;13.43;5.77;;;6.20;7.20;;;;;;5073499;28;20164;-78
2021/04/23 04:00:43;;;;;;;13.80;5.80;;;6.20;7.80;;;;;;5072044;28;20183;-77
2021/04/23 04:03:11;;;;;;;12.73;6.07;;;6.20;5.00;;;;;;5072802;28;20172;-78
2021/04/23 04:05:36;;;;;;;10.33;6.33;;;6.20;6.00;;;;;;5072906;28;20164;-77
2021/04/23 04:08:04;;;;;;;14.03;6.20;;;6.20;6.70;;;;;;5073224;28;20191;-79
2021/04/23 04:10:30;;;;;;;13.13;5.93;;;6.10;10.00;;;;;;5071440;28;20169;-78
2021/04/23 04:12:56;;;;;;;15.00;6.40;;;6.00;14.20;;;;;;5072104;28;20184;-79
2021/04/23 04:15:23;;;;;;;13.83;6.60;;;5.90;19.50;;;;;;5074007;28;20172;-79
2021/04/23 04:17:50;;;;;;;13.87;6.03;;;5.80;21.90;;;;;;5074781;28;20594;-75
2021/04/23 04:20:16;;;;;;;15.43;6.10;;;5.80;25.40;;;;;;5076188;28;20688;-77
2021/04/23 04:22:42;;;;;;;11.33;6.30;;;5.70;27.50;;;;;;5076530;28;20168;-78
2021/04/23 04:25:12;;;;;;;11.23;6.10;;;5.70;28.20;;;;;;5076201;28;20750;-75
2021/04/23 04:27:38;;;;;;;14.53;6.83;;;5.60;31.60;;;;;;5075931;28;20179;-81
2021/04/23 04:30:06;;;;;;;20.97;7.23;;;5.60;34.10;;;;;;5073875;28;20745;-77
2021/04/23 04:32:31;;;;;;;12.77;6.97;;;5.50;38.60;;;;;;5075856;28;20253;-75
2021/04/23 04:34:57;;;;;;;13.93;7.43;;;5.50;39.10;;;;;;5075956;28;20586;-75
2021/04/23 04:37:22;;;;;;;14.13;6.90;;;5.50;41.30;;;;;;5075999;28;20637;-80
2021/04/23 04:39:48;;;;;;;15.60;7.27;;;5.50;43.20;;;;;;5075678;28;20172;-76
2021/04/23 04:42:14;;;;;;;16.80;8.20;;;5.50;40.20;;;;;;5075838;28;20188;-77
2021/04/23 04:44:39;;;;;;;16.20;7.30;;;5.50;41.00;;;;;;5075018;28;20164;-76
2021/04/23 04:47:05;;;;;;;17.90;7.67;;;5.40;43.00;;;;;;5075452;28;20176;-79
2021/04/23 04:49:31;;;;;;;17.03;6.77;;;5.40;44.00;;;;;;5075419;28;20178;-80
2021/04/23 04:51:57;;;;;;;14.87;7.73;;;5.40;44.30;;;;;;5075601;28;20272;-78
2021/04/23 04:54:23;;;;;;;19.63;8.43;;;5.50;45.40;;;;;;5075561;28;20172;-80
2021/04/23 04:56:49;;;;;;;16.97;7.80;;;5.60;43.10;;;;;;5075322;28;20518;-77
2021/04/23 04:59:14;;;;;;;15.33;7.20;;;5.50;43.80;;;;;;5075504;28;20249;-76
2021/04/23 05:01:40;;;;;;;14.00;7.43;;;5.50;42.60;;;;;;5075019;28;20308;-78
2021/04/23 05:04:06;;;;;;;20.20;7.50;;;5.60;42.60;;;;;;5075489;28;20530;-80
2021/04/23 05:06:31;;;;;;;13.60;6.93;;;5.60;42.10;;;;;;5075505;28;20169;-79
2021/04/23 05:08:57;;;;;;;15.03;7.97;;;5.70;41.00;;;;;;5075288;28;20172;-75
2021/04/23 05:11:23;;;;;;;15.50;7.77;;;5.80;38.70;;;;;;5075237;28;20214;-77
2021/04/23 05:13:48;;;;;;;14.20;7.00;;;5.80;35.70;;;;;;5075140;28;20523;-77
2021/04/23 05:16:16;;;;;;;14.23;7.33;;;5.80;34.20;;;;;;5074796;28;20631;-79
2021/04/23 05:18:42;;;;;;;17.17;7.03;;;5.80;35.00;;;;;;5074997;28;20251;-78
2021/04/23 05:21:07;;;;;;;21.13;7.90;;;5.80;33.00;;;;;;5074754;28;20275;-79
2021/04/23 05:23:33;;;;;;;19.27;8.53;;;5.90;31.30;;;;;;5074640;28;20180;-76
2021/04/23 05:25:59;;;;;;;15.67;7.47;;;5.80;30.00;;;;;;5074199;28;20177;-77
2021/04/23 05:28:25;;;;;;;20.70;8.20;;;5.90;32.40;;;;;;5073475;28;20180;-77
2021/04/23 05:30:51;;;;;;;17.07;7.83;;;5.90;29.60;;;;;;5073994;28;20204;-81
2021/04/23 05:33:17;;;;;;;22.63;7.80;;;5.90;27.20;;;;;;5074465;28;20169;-80
2021/04/23 05:35:43;;;;;;;18.27;8.43;;;6.00;24.90;;;;;;5074240;28;20165;-80
2021/04/23 05:38:09;;;;;;;19.27;9.07;;;5.90;25.60;;;;;;5074379;28;20525;-80
2021/04/23 05:40:43;;;;;;;16.30;8.47;;;5.90;27.10;;;;;;5074390;28;20267;-78
2021/04/23 05:43:10;;;;;;;16.33;9.37;;;6.00;21.90;;;;;;5074280;28;20216;-76
2021/04/23 05:45:40;;;;;;;20.60;9.03;;;6.10;20.80;;;;;;5073897;28;20164;-78
2021/04/23 05:48:07;;;;;;;18.33;9.27;;;6.00;21.00;;;;;;5074274;28;20523;-76
2021/04/23 05:50:33;;;;;;;19.83;8.87;;;6.00;23.70;;;;;;5074014;28;20180;-80
2021/04/23 05:52:59;;;;;;;15.80;9.67;;;6.10;18.40;;;;;;5073642;28;20232;-75
2021/04/23 05:55:25;;;;;;;15.83;7.13;;;6.10;17.10;;;;;;5073932;28;20168;-82
2021/04/23 05:57:56;;;;;;;14.87;7.53;;;6.00;15.90;;;;;;5074156;28;20168;-78
2021/04/23 06:00:23;;;;;;;22.17;8.50;;;6.10;16.20;;;;;;5072032;28;20613;-80
2021/04/23 06:02:50;;;;;;;18.63;7.27;;;6.20;11.90;;;;;;5073365;28;20172;-77
2021/04/23 06:05:18;;;;;;;16.80;8.93;;;6.20;6.30;;;;;;5073692;28;20177;-81
2021/04/23 06:07:44;;;;;;;14.27;8.17;;;6.30;6.40;;;;;;5073707;28;20207;-80
2021/04/23 06:10:11;;;;;;;14.43;7.80;;;6.40;4.00;;;;;;5072950;28;20176;-77
2021/04/23 06:12:39;;;;;;;15.47;8.40;;;6.40;3.30;;;;;;5072565;28;20245;-77
2021/04/23 06:15:06;;;;;;;15.17;7.20;;;6.50;1.00;;;;;;5072926;28;20168;-77
2021/04/23 06:17:35;;;;;;;14.33;7.03;;;6.40;1.00;;;;;;5072641;28;20247;-76
2021/04/23 06:20:01;;;;;;;14.10;7.93;;;6.40;1.00;;;;;;5072347;28;20196;-78
2021/04/23 06:22:27;;;;;;;14.33;7.67;;;6.50;1.00;;;;;;5073121;28;20218;-76
2021/04/23 06:24:53;;;;;;;17.83;6.83;;;6.60;1.00;;;;;;5072957;28;20168;-81
2021/04/23 06:27:18;;;;;;;12.93;6.83;;;6.60;1.00;;;;;;5072953;28;20168;-80
2021/04/23 06:29:44;;;;;;;14.73;7.23;;;6.70;1.00;;;;;;5073037;28;20165;-80
2021/04/23 06:32:10;;;;;;;13.80;7.63;;;6.80;1.00;;;;;;5072262;28;20230;-80
2021/04/23 06:34:37;;;;;;;16.00;7.13;;;6.80;1.00;;;;;;5072274;28;20625;-78
2021/04/23 06:37:02;;;;;;;17.77;7.80;;;6.90;1.00;;;;;;5071342;28;20688;-77
2021/04/23 06:39:28;;;;;;;14.57;6.93;;;6.90;1.00;;;;;;5072162;28;20251;-77
2021/04/23 06:41:54;;;;;;;14.30;6.27;;;7.00;1.00;;;;;;5072406;28;20179;-79
2021/04/23 06:44:20;;;;;;;16.23;6.47;;;7.00;1.00;;;;;;5072948;28;20168;-76
2021/04/23 06:46:46;;;;;;;15.23;6.20;;;7.00;1.00;;;;;;5071088;28;20204;-76
2021/04/23 06:49:12;;;;;;;12.30;6.57;;;7.10;1.00;;;;;;5072567;28;20168;-78
2021/04/23 06:51:38;;;;;;;11.90;6.07;;;7.20;1.00;;;;;;5072481;28;20235;-75
2021/04/23 06:54:05;;;;;;;10.47;5.67;;;7.30;1.00;;;;;;5072656;28;20179;-80
2021/04/23 06:56:31;;;;;;;11.63;5.97;;;7.40;1.00;;;;;;5072229;28;20176;-81
2021/04/23 06:58:57;;;;;;;9.53;5.30;;;7.40;1.00;;;;;;5072547;28;20175;-78
2021/04/23 07:01:23;;;;;;;14.17;6.07;;;7.50;1.00;;;;;;5072117;28;20176;-78
2021/04/23 07:03:48;;;;;;;10.73;4.63;;;7.40;1.00;;;;;;5074387;28;20172;-77
2021/04/23 07:06:14;;;;;;;10.00;5.20;;;7.30;1.00;;;;;;5073179;28;20168;-76
2021/04/23 07:08:40;;;;;;;11.50;5.23;;;7.20;1.00;;;;;;5060711;28;20160;-77
2021/04/23 07:11:06;;;;;;;10.20;5.30;;;7.30;1.00;;;;;;5062633;28;20564;-75
2021/04/23 07:13:32;;;;;;;11.87;5.47;;;7.40;1.00;;;;;;5061770;28;20188;-78
2021/04/23 07:15:58;;;;;;;10.30;4.77;;;7.50;1.00;;;;;;5063621;28;20241;-77
2021/04/23 07:18:26;;;;;;;12.37;4.80;;;7.50;1.00;;;;;;5065111;28;20519;-77
2021/04/23 07:20:52;;;;;;;10.40;5.13;;;7.50;1.00;;;;;;5069194;28;20201;-75
2021/04/23 07:23:18;;;;;;;8.70;4.30;;;7.50;1.00;;;;;;5062195;28;20645;-75
2021/04/23 07:25:43;;;;;;;9.77;4.43;;;7.60;1.00;;;;;;5052542;28;20185;-77
2021/04/23 07:28:09;;;;;;;9.13;5.23;;;7.70;1.00;;;;;;5060460;28;20666;-77
2021/04/23 07:30:36;;;;;;;8.87;4.57;;;7.80;1.00;;;;;;5065185;28;20276;-82
2021/04/23 07:33:05;;;;;;;10.73;4.43;;;7.60;1.00;;;;;;5076604;28;20184;-79
2021/04/23 07:35:31;;;;;;;7.73;3.97;;;7.60;1.00;;;;;;5084952;28;20171;-78
2021/04/23 07:37:59;;;;;;;10.13;3.30;;;7.70;1.00;;;;;;5089277;28;20187;-77
2021/04/23 07:40:25;;;;;;;7.03;3.83;;;7.70;1.00;;;;;;5071093;28;20639;-80
2021/04/23 07:42:55;;;;;;;8.83;4.10;;;7.80;1.00;;;;;;5072306;28;20643;-79
2021/04/23 07:45:20;;;;;;;10.83;4.43;;;7.90;1.00;;;;;;5070737;28;20195;-81
2021/04/23 07:47:47;;;;;;;8.87;5.03;;;7.90;1.00;;;;;;5079874;28;20172;-79
2021/04/23 07:50:15;;;;;;;9.80;4.03;;;7.80;1.00;;;;;;5091388;28;20187;-79
2021/04/23 07:52:41;;;;;;;12.60;4.40;;;7.80;1.00;;;;;;5096507;28;20211;-78
2021/04/23 07:55:10;;;;;;;11.87;4.93;;;7.90;1.00;;;;;;5095932;28;20554;-81
2021/04/23 07:57:36;;;;;;;10.47;4.40;;;8.00;1.00;;;;;;5094793;28;20532;-83
2021/04/23 08:00:07;;;;;;;9.07;4.53;;;8.10;1.00;;;;;;5096055;28;20172;-82
2021/04/23 08:02:32;;;;;;;13.17;5.20;;;8.10;99.90;;;;;;5094872;28;20590;-79
2021/04/23 08:04:58;;;;;;;9.57;5.20;;;8.20;1.00;;;;;;5085329;28;20223;-80
2021/04/23 08:07:24;;;;;;;11.10;5.27;;;8.40;1.00;;;;;;5075474;28;20620;-80
2021/04/23 08:09:49;;;;;;;16.93;5.97;;;8.50;99.90;;;;;;5075184;28;20172;-80
2021/04/23 08:12:15;;;;;;;10.47;4.67;;;8.60;99.90;;;;;;5075511;28;20226;-84
2021/04/23 08:14:41;;;;;;;10.13;4.77;;;8.70;99.90;;;;;;5075255;28;20179;-81
2021/04/23 08:17:06;;;;;;;8.77;4.53;;;8.70;99.90;;;;;;5075446;28;20537;-77
2021/04/23 08:19:33;;;;;;;6.43;3.57;;;8.70;99.90;;;;;;5074323;28;20212;-81
2021/04/23 08:21:59;;;;;;;9.57;5.03;;;8.80;43.50;;;;;;5075794;28;20188;-78
2021/04/23 08:24:26;;;;;;;8.70;4.40;;;8.80;99.90;;;;;;5075502;28;20234;-82
2021/04/23 08:26:51;;;;;;;11.20;4.30;;;8.80;58.90;;;;;;5075627;28;20617;-82
2021/04/23 08:29:17;;;;;;;15.00;4.43;;;8.80;99.90;;;;;;5074947;28;20168;-82
2021/04/23 08:31:43;;;;;;;10.37;5.00;;;9.00;1.00;;;;;;5073592;28;20633;-82
2021/04/23 08:34:10;;;;;;;10.00;4.37;;;8.90;99.90;;;;;;5075325;28;20179;-79
2021/04/23 08:36:36;;;;;;;9.20;3.90;;;9.00;1.00;;;;;;5075253;28;20180;-79
2021/04/23 08:39:06;;;;;;;10.77;4.03;;;9.10;1.00;;;;;;5074897;28;20630;-80
2021/04/23 08:41:33;;;;;;;10.10;4.10;;;9.20;1.00;;;;;;5075244;28;20594;-82
2021/04/23 08:43:58;;;;;;;8.17;4.03;;;9.10;1.00;;;;;;5075124;28;20243;-79
2021/04/23 08:46:24;;;;;;;9.80;4.80;;;9.00;1.00;;;;;;5075085;28;20251;-79
2021/04/23 08:48:51;;;;;;;11.17;4.50;;;9.10;1.00;;;;;;5074989;28;20271;-78
2021/04/23 08:51:20;;;;;;;8.67;4.47;;;9.20;1.00;;;;;;5074722;28;20210;-80
2021/04/23 08:53:46;;;;;;;12.67;5.53;;;9.20;1.00;;;;;;5074662;28;20168;-81
2021/04/23 08:56:12;;;;;;;12.00;4.93;;;9.30;99.90;;;;;;5074447;28;20176;-84
2021/04/23 08:58:38;;;;;;;9.90;3.77;;;9.40;1.00;;;;;;5074904;28;20259;-80
2021/04/23 09:01:06;;;;;;;10.13;3.57;;;9.60;99.90;;;;;;5074066;28;20601;-81
2021/04/23 09:03:32;;;;;;;8.27;3.47;;;9.70;99.90;;;;;;5074579;28;20215;-79
2021/04/23 09:06:13;;;;;;;7.03;3.30;;;9.70;99.90;;;;;;5074660;28;20580;-81
2021/04/23 09:09:09;;;;;;;10.47;3.40;;;9.80;99.90;;;;;;5074409;28;20267;-82
2021/04/23 09:11:40;;;;;;;10.30;4.00;;;9.90;99.90;;;;;;5074196;28;20283;-78
2021/04/23 09:14:17;;;;;;;10.03;3.87;;;9.80;65.00;;;;;;5074379;28;20172;-78
2021/04/23 09:16:55;;;;;;;7.10;3.33;;;10.00;99.90;;;;;;5074375;28;20189;-82
2021/04/23 09:19:26;;;;;;;13.03;4.07;;;10.00;99.90;;;;;;5074673;28;20164;-77
2021/04/23 09:22:18;;;;;;;13.87;3.47;;;10.00;1.00;;;;;;5073962;28;20194;-81
2021/04/23 09:24:56;;;;;;;8.70;3.40;;;9.90;99.90;;;;;;5074099;28;20211;-80
2021/04/23 09:27:25;;;;;;;11.93;4.43;;;10.00;1.00;;;;;;5074900;28;20172;-82
2021/04/23 09:29:53;;;;;;;12.53;4.07;;;10.00;1.00;;;;;;5074667;28;20181;-80
2021/04/23 09:32:40;;;;;;;9.93;4.30;;;10.00;1.00;;;;;;5074057;28;20219;-81
2021/04/23 09:35:19;;;;;;;9.37;3.77;;;10.10;1.00;;;;;;5074520;28;20160;-79
2021/04/23 09:37:52;;;;;;;6.73;3.67;;;10.10;1.00;;;;;;5074761;28;20255;-80
2021/04/23 09:40:30;;;;;;;9.27;3.77;;;10.20;1.00;;;;;;5061164;28;20195;-80
2021/04/23 09:43:01;;;;;;;11.07;4.00;;;10.30;99.90;;;;;;5073663;28;20617;-83
2021/04/23 09:45:29;;;;;;;8.97;3.67;;;10.50;1.00;;;;;;5075142;28;20247;-81
2021/04/23 09:47:56;;;;;;;8.80;3.67;;;10.40;1.00;;;;;;5073118;28;20259;-79
2021/04/23 09:50:28;;;;;;;9.97;4.53;;;10.40;1.00;;;;;;5073414;28;20488;-79
2021/04/23 09:52:56;;;;;;;11.50;3.90;;;10.40;99.90;;;;;;5072599;28;20243;-80
2021/04/23 09:55:29;;;;;;;8.90;4.17;;;10.50;1.00;;;;;;5073856;28;20160;-77
2021/04/23 09:58:03;;;;;;;8.80;4.00;;;10.50;1.00;;;;;;5074211;28;20175;-79
2021/04/23 10:00:31;;;;;;;7.90;3.50;;;10.70;1.00;;;;;;5073480;28;20263;-77
2021/04/23 10:03:00;;;;;;;10.10;3.47;;;10.70;99.90;;;;;;5073342;28;20225;-81
2021/04/23 10:05:41;;;;;;;6.87;3.10;;;10.50;2.10;;;;;;5072996;28;20624;-81
2021/04/23 10:08:09;;;;;;;32.10;5.47;;;10.80;1.00;;;;;;5073538;28;20168;-80
2021/04/23 10:10:50;;;;;;;8.90;3.87;;;11.20;1.00;;;;;;5071940;28;20195;-78
2021/04/23 10:13:16;;;;;;;9.57;3.93;;;11.50;44.50;;;;;;5072976;28;20172;-82
2021/04/23 10:15:44;;;;;;;12.33;4.10;;;11.30;99.90;;;;;;5073491;28;20271;-76
2021/04/23 10:18:14;;;;;;;8.77;3.23;;;11.30;99.90;;;;;;5073735;28;20223;-77
2021/04/23 10:20:42;;;;;;;5.73;3.37;;;11.30;1.00;;;;;;5072888;28;20607;-80
2021/04/23 10:23:14;;;;;;;9.93;3.10;;;11.30;1.00;;;;;;5073110;28;20204;-80
2021/04/23 10:25:40;;;;;;;9.43;3.50;;;11.30;99.90;;;;;;5073218;28;20530;-81
2021/04/23 10:28:09;;;;;;;7.03;3.50;;;11.40;99.90;;;;;;5071521;28;20608;-79
2021/04/23 10:30:38;;;;;;;10.73;3.33;;;11.40;1.00;;;;;;5071996;28;20204;-81
2021/04/23 10:33:06;;;;;;;8.50;3.40;;;11.40;1.00;;;;;;5072649;28;20172;-80
2021/04/23 10:35:33;;;;;;;10.00;4.10;;;11.50;1.00;;;;;;5072725;28;20192;-76
2021/04/23 10:38:26;;;;;;;8.87;3.13;;;11.90;1.00;;;;;;5074204;28;20168;-80
2021/04/23 10:41:01;;;;;;;6.97;3.40;;;11.80;99.90;;;;;;5085597;28;20176;-80
2021/04/23 10:43:27;;;;;;;7.53;3.53;;;11.90;99.90;;;;;;5093253;28;20673;-81
2021/04/23 10:45:58;;;;;;;10.90;3.83;;;12.00;1.00;;;;;;5093052;28;20163;-80
2021/04/23 10:48:30;;;;;;;7.83;3.37;;;12.20;1.00;;;;;;5092399;28;20229;-78
2021/04/23 10:51:11;;;;;;;8.30;3.77;;;12.30;1.00;;;;;;5092756;28;20195;-79
2021/04/23 10:53:43;;;;;;;7.93;3.50;;;12.20;99.90;;;;;;5092594;28;20251;-80
2021/04/23 10:56:23;;;;;;;8.87;3.60;;;12.20;99.90;;;;;;5092949;28;20178;-82
2021/04/23 10:58:50;;;;;;;10.00;4.23;;;12.00;99.90;;;;;;5092839;28;20180;-80
2021/04/23 11:01:15;;;;;;;7.63;3.30;;;12.20;99.90;;;;;;5091553;28;20242;-80
2021/04/23 11:03:43;;;;;;;9.97;4.00;;;12.30;99.90;;;;;;5079642;28;20600;-80
2021/04/23 11:06:15;;;;;;;9.17;3.83;;;12.30;99.90;;;;;;5072472;28;20251;-82
2021/04/23 11:08:58;;;;;;;8.60;3.87;;;12.40;99.90;;;;;;5072072;28;20164;-82
2021/04/23 11:11:25;;;;;;;8.27;3.77;;;12.50;99.90;;;;;;5070916;28;20291;-80
2021/04/23 11:13:53;;;;;;;8.90;3.63;;;12.60;99.90;;;;;;5070304;28;20510;-78
2021/04/23 11:16:22;;;;;;;8.07;3.50;;;12.60;58.40;;;;;;5072274;28;20206;-80
2021/04/23 11:18:59;;;;;;;8.37;4.27;;;12.60;99.90;;;;;;5071757;28;20168;-79
2021/04/23 11:21:35;;;;;;;6.97;3.83;;;12.60;99.90;;;;;;5071772;28;20271;-80
2021/04/23 11:24:28;;;;;;;9.30;3.80;;;12.70;99.90;;;;;;5069647;28;20231;-80
2021/04/23 11:29:23;;;;;;;8.13;4.40;;;12.90;99.90;;;;;;5071786;28;20573;-81
2021/04/23 11:32:18;;;;;;;7.47;3.90;;;12.80;99.90;;;;;;5071444;28;20662;-79
2021/04/23 11:34:52;;;;;;;14.90;5.10;;;12.80;99.90;;;;;;5071967;28;20172;-80
2021/04/23 11:37:22;;;;;;;9.57;4.37;;;12.90;99.90;;;;;;5070426;28;20183;-79
2021/04/23 11:39:59;;;;;;;7.73;4.17;;;13.00;99.90;;;;;;5086369;28;20170;-82
2021/04/23 11:42:46;;;;;;;13.13;5.03;;;12.90;99.90;;;;;;5051665;28;20165;-77
2021/04/23 11:45:25;;;;;;;9.90;3.90;;;12.90;99.90;;;;;;5052414;28;20190;-78
2021/04/23 11:48:00;;;;;;;9.23;4.30;;;13.10;93.20;;;;;;5051594;28;20635;-80
2021/04/23 11:50:35;;;;;;;9.30;3.63;;;13.20;52.40;;;;;;5051689;28;20178;-78
2021/04/23 11:53:12;;;;;;;7.93;4.17;;;13.20;1.00;;;;;;5051815;28;20640;-80
2021/04/23 11:55:43;;;;;;;14.43;4.90;;;13.30;1.00;;;;;;5052050;28;20176;-80
2021/04/23 11:58:21;;;;;;;11.50;4.47;;;13.30;1.00;;;;;;5051660;28;20165;-79
2021/04/23 12:00:54;;;;;;;9.10;4.30;;;13.30;30.20;;;;;;5050737;28;20188;-79
2021/04/23 12:03:21;;;;;;;8.10;3.73;;;13.50;99.90;;;;;;5060297;28;20180;-79
2021/04/23 12:05:48;;;;;;;8.53;3.90;;;13.50;8.60;;;;;;5071639;28;20179;-79
2021/04/23 12:08:30;;;;;;;8.03;3.50;;;13.60;1.00;;;;;;5071549;28;20243;-79
2021/04/23 12:11:01;;;;;;;7.23;3.33;;;13.80;5.50;;;;;;5071252;28;20230;-78
2021/04/23 12:13:38;;;;;;;10.73;3.80;;;13.80;1.00;;;;;;5070934;28;20164;-79
2021/04/23 12:16:07;;;;;;;12.87;4.10;;;13.80;1.00;;;;;;5070850;28;20168;-82
2021/04/23 12:18:40;;;;;;;7.23;3.70;;;13.90;1.00;;;;;;5070467;28;20172;-78
2021/04/23 12:21:10;;;;;;;9.60;3.83;;;13.90;1.00;;;;;;5070932;28;20290;-78
2021/04/23 12:23:35;;;;;;;8.93;3.50;;;13.80;1.00;;;;;;5070732;28;20179;-80
2021/04/23 12:26:06;;;;;;;6.80;3.47;;;13.80;1.00;;;;;;5070834;28;20247;-79
2021/04/23 12:28:42;;;;;;;9.07;3.93;;;13.90;1.00;;;;;;5070586;28;20168;-80
2021/04/23 12:31:17;;;;;;;9.13;4.53;;;13.90;1.00;;;;;;5069343;28;20556;-79
2021/04/23 12:33:50;;;;;;;11.03;4.00;;;13.80;1.00;;;;;;5070943;28;20251;-80
2021/04/23 12:36:25;;;;;;;12.37;4.40;;;14.00;1.00;;;;;;5071515;28;20267;-79
2021/04/23 12:39:04;;;;;;;8.70;4.20;;;14.20;1.00;;;;;;5074804;28;20259;-80
2021/04/23 12:41:41;;;;;;;10.33;4.03;;;14.10;1.00;;;;;;5074357;28;20175;-79
2021/04/23 12:44:20;;;;;;;10.37;4.27;;;14.20;1.00;;;;;;5074621;28;20172;-79
2021/04/23 12:46:55;;;;;;;11.23;5.10;;;14.20;1.00;;;;;;5074670;28;20585;-79
2021/04/23 12:49:24;;;;;;;12.03;5.00;;;14.30;1.00;;;;;;5074044;28;20212;-80
2021/04/23 12:51:51;;;;;;;10.73;4.70;;;14.20;1.00;;;;;;5074454;28;20216;-78
2021/04/23 12:54:29;;;;;;;11.13;5.37;;;14.20;3.90;;;;;;5073156;28;20180;-80
2021/04/23 12:56:59;;;;;;;9.00;4.87;;;14.30;11.50;;;;;;5072524;28;20609;-78
2021/04/23 12:59:36;;;;;;;9.03;4.83;;;14.50;1.00;;;;;;5072173;28;20540;-82
2021/04/23 13:02:03;;;;;;;9.03;4.17;;;14.60;1.00;;;;;;5073910;28;20221;-79
2021/04/23 13:04:29;;;;;;;8.90;5.00;;;14.60;1.00;;;;;;5072283;28;20191;-80
2021/04/23 13:07:07;;;;;;;10.20;5.13;;;14.50;1.00;;;;;;5073849;28;20165;-77